Airfield :
LOGIN :

Register | Disclaimer

   EN    FR    IT 

 










Legend :    VFR   Marginal VFR   IFR   Intensive IFR   Very Intensive IFR
Visi :
Ceiling :
>= 8 km
>= 3000ft
5 to 8 km
1000 to 3000 ft
1500m to 5 km
500 to 1000 ft
800 to 1500m
200 to 500 ft
< 800m
< 200 ft
Symbols :   Thunderstorms  Fog  Heavy snow  Heavy precipitations  Wind > 20 kt
SIGMETs :     Misc.  Thunderstorms  Icing  Turbulence  Mountain Waves  Volcanic Ashes






- Airport Elevation : 124 ft
- IATA code : RNS


LFRN - Rennes

CURRENT METAR :
  • 070230Z AUTO 03008KT 8000 NSC 01/00 Q1021 TEMPO 3000 BR

EXPIRED METARs :
  • 070200Z AUTO 34003KT 310V010 7000 NSC 00/M01 Q1021 TEMPO 3000 BR
  • 070130Z AUTO 05003KT 7000 NSC 01/01 Q1021 TEMPO 3000 BR
  • 070100Z AUTO 08003KT 8000 NSC 02/01 Q1021 TEMPO 3000 BR
  • 070030Z AUTO 10003KT 070V130 9000 NSC 02/01 Q1021 TEMPO 3000 BR

TAF TAF LFRN
Valid from the 07 at 00:00 until the 08 at 00:00 UTC


062300Z 0700/0724 06005KT 7000 FEW020
TEMPO 0702/0707 3000 BR
BECMG 0707/0709 2000 BR OVC003
TEMPO 0707/0710 0500 FG VV///
BECMG 0710/0712 9999 NSW BKN006
BECMG 0718/0720 2000 BR OVC002
TEMPO 0720/0724 0500 FG
ATIS : +33 2 99 67 72 50



MET'MAP, your aeronautical weather chart ! - Copyright ORBIFLY December 2007 - Disclaimer

ORBIFLY MET'MAP TEAM :

Programming & Development : Alexandra Zaïnal
Original concept : Baudouin d'Aumeries
Technical & hardware support : Manuel Goepfert
Assistance : Marc-Olivier Méhu




SOURCES & CREDITS :

   NOAA